Terminal Aerodrome Forecast
Issued by NWS St Louis, MO

Home | Current Version | Previous Version | Text Only | Print | Product List | Glossary On
Versions: 1 2 3 4 5 6 7 8 9 10 11 12 13 14 15 16 17 18 19 20 21 22 23 24 25 26 27 28
000
FTUS43 KLSX 020909 AAA
TAFSTL
TAF AMD
KSTL 020909Z 0209/0312 VRB05KT 5SM -SHRA SCT010 OVC020
     FM021000 02007KT 5SM BR OVC010
     FM021600 01008KT P6SM OVC020
     FM022100 36008KT P6SM BKN035
     FM030100 35005KT P6SM SCT035=

USA.gov is the U.S. government's official web portal to all federal, state and local government web resources and services.